Terminal Aerodrome Forecast
Issued by NWS

Home | Current Version | Previous Version | Text Only | Print | Product List | Glossary On
Versions: 1 2 3 4 5 6 7 8 9 10 11 12 13 14 15 16 17
000
FTUS43 KDLH 220530
TAFBRD
TAF
KBRD 220530Z 2206/2306 30008KT P6SM SCT250
     FM221000 24004KT P6SM FEW250
     FM221700 19011KT P6SM BKN080
     FM222000 18011G17KT 5SM -SN OVC030
     FM230000 19005KT P6SM BKN045=

USA.gov is the U.S. government's official web portal to all federal, state and local government web resources and services.